sensor_id;sensor_type;location;lat;lon;timestamp;temperature;humidity
21830;DHT22;11077;50.264;6.798;2023-09-19T00:00:17;13.60;99.90
21830;DHT22;11077;50.264;6.798;2023-09-19T00:02:51;13.50;99.90
21830;DHT22;11077;50.264;6.798;2023-09-19T00:05:18;13.40;99.90
21830;DHT22;11077;50.264;6.798;2023-09-19T00:07:50;13.40;99.90
21830;DHT22;11077;50.264;6.798;2023-09-19T00:10:20;13.30;99.90
21830;DHT22;11077;50.264;6.798;2023-09-19T00:12:50;13.30;99.90
21830;DHT22;11077;50.264;6.798;2023-09-19T00:15:19;13.30;99.90
21830;DHT22;11077;50.264;6.798;2023-09-19T00:17:47;13.20;99.90
21830;DHT22;11077;50.264;6.798;2023-09-19T00:20:14;13.20;99.90
21830;DHT22;11077;50.264;6.798;2023-09-19T00:22:43;13.20;99.90
21830;DHT22;11077;50.264;6.798;2023-09-19T00:25:11;13.20;99.90
21830;DHT22;11077;50.264;6.798;2023-09-19T00:27:41;13.20;99.90
21830;DHT22;11077;50.264;6.798;2023-09-19T00:30:12;13.30;99.90
21830;DHT22;11077;50.264;6.798;2023-09-19T00:32:45;13.30;99.90
21830;DHT22;11077;50.264;6.798;2023-09-19T00:35:13;13.30;99.90
21830;DHT22;11077;50.264;6.798;2023-09-19T00:37:41;13.30;99.90
21830;DHT22;11077;50.264;6.798;2023-09-19T00:40:09;13.30;99.90
21830;DHT22;11077;50.264;6.798;2023-09-19T00:42:38;13.30;99.90
21830;DHT22;11077;50.264;6.798;2023-09-19T00:45:08;13.30;99.90
21830;DHT22;11077;50.264;6.798;2023-09-19T00:47:42;13.30;99.90
21830;DHT22;11077;50.264;6.798;2023-09-19T00:50:10;13.30;99.90
21830;DHT22;11077;50.264;6.798;2023-09-19T00:52:40;13.30;99.90
21830;DHT22;11077;50.264;6.798;2023-09-19T00:55:11;13.30;99.90
21830;DHT22;11077;50.264;6.798;2023-09-19T00:57:39;13.30;99.90
21830;DHT22;11077;50.264;6.798;2023-09-19T01:00:08;13.30;99.90
21830;DHT22;11077;50.264;6.798;2023-09-19T01:02:39;13.30;99.90
21830;DHT22;11077;50.264;6.798;2023-09-19T01:05:07;13.30;99.90
21830;DHT22;11077;50.264;6.798;2023-09-19T01:07:36;13.20;99.90
21830;DHT22;11077;50.264;6.798;2023-09-19T01:10:07;13.20;99.90
21830;DHT22;11077;50.264;6.798;2023-09-19T01:12:46;13.20;99.90
21830;DHT22;11077;50.264;6.798;2023-09-19T01:15:23;13.20;99.90
21830;DHT22;11077;50.264;6.798;2023-09-19T01:18:05;13.20;99.90
21830;DHT22;11077;50.264;6.798;2023-09-19T01:20:40;13.20;99.90
21830;DHT22;11077;50.264;6.798;2023-09-19T01:23:18;13.20;99.90
21830;DHT22;11077;50.264;6.798;2023-09-19T01:26:16;13.20;99.90
21830;DHT22;11077;50.264;6.798;2023-09-19T01:29:07;13.10;99.90
21830;DHT22;11077;50.264;6.798;2023-09-19T01:31:43;13.20;99.90
21830;DHT22;11077;50.264;6.798;2023-09-19T01:34:12;13.20;99.90
21830;DHT22;11077;50.264;6.798;2023-09-19T01:36:40;13.20;99.90
21830;DHT22;11077;50.264;6.798;2023-09-19T01:39:09;13.20;99.90
21830;DHT22;11077;50.264;6.798;2023-09-19T01:41:47;13.20;99.90
21830;DHT22;11077;50.264;6.798;2023-09-19T01:44:23;13.20;99.90
21830;DHT22;11077;50.264;6.798;2023-09-19T01:46:57;13.20;99.90
21830;DHT22;11077;50.264;6.798;2023-09-19T01:49:33;13.30;99.90
21830;DHT22;11077;50.264;6.798;2023-09-19T01:52:10;13.30;99.90
21830;DHT22;11077;50.264;6.798;2023-09-19T01:54:45;13.30;99.90
21830;DHT22;11077;50.264;6.798;2023-09-19T01:57:17;13.30;99.90
21830;DHT22;11077;50.264;6.798;2023-09-19T01:59:52;13.30;99.90
21830;DHT22;11077;50.264;6.798;2023-09-19T02:02:26;13.30;99.90
21830;DHT22;11077;50.264;6.798;2023-09-19T02:04:55;13.30;99.90
21830;DHT22;11077;50.264;6.798;2023-09-19T02:07:26;13.20;99.90
21830;DHT22;11077;50.264;6.798;2023-09-19T02:09:54;13.20;99.90
21830;DHT22;11077;50.264;6.798;2023-09-19T02:12:21;13.20;99.90
21830;DHT22;11077;50.264;6.798;2023-09-19T02:14:49;13.10;99.90
21830;DHT22;11077;50.264;6.798;2023-09-19T02:17:16;13.00;99.90
21830;DHT22;11077;50.264;6.798;2023-09-19T02:19:45;13.00;99.90
21830;DHT22;11077;50.264;6.798;2023-09-19T02:22:12;12.90;99.90
21830;DHT22;11077;50.264;6.798;2023-09-19T02:24:40;12.90;99.90
21830;DHT22;11077;50.264;6.798;2023-09-19T02:27:08;12.80;99.90
21830;DHT22;11077;50.264;6.798;2023-09-19T02:29:35;12.80;99.90
21830;DHT22;11077;50.264;6.798;2023-09-19T02:32:02;12.80;99.90
21830;DHT22;11077;50.264;6.798;2023-09-19T02:34:33;12.70;99.90
21830;DHT22;11077;50.264;6.798;2023-09-19T02:37:04;12.70;99.90
21830;DHT22;11077;50.264;6.798;2023-09-19T02:39:34;12.70;99.90
21830;DHT22;11077;50.264;6.798;2023-09-19T02:42:03;12.70;99.90
21830;DHT22;11077;50.264;6.798;2023-09-19T02:44:31;12.70;99.90
21830;DHT22;11077;50.264;6.798;2023-09-19T02:47:00;12.60;99.90
21830;DHT22;11077;50.264;6.798;2023-09-19T02:49:27;12.60;99.90
21830;DHT22;11077;50.264;6.798;2023-09-19T02:51:55;12.60;99.90
21830;DHT22;11077;50.264;6.798;2023-09-19T02:54:25;12.60;99.90
21830;DHT22;11077;50.264;6.798;2023-09-19T02:56:54;12.60;99.90
21830;DHT22;11077;50.264;6.798;2023-09-19T02:59:25;12.60;99.90
21830;DHT22;11077;50.264;6.798;2023-09-19T03:01:54;12.60;99.90
21830;DHT22;11077;50.264;6.798;2023-09-19T03:04:22;12.60;99.90
21830;DHT22;11077;50.264;6.798;2023-09-19T03:06:50;12.60;99.90
21830;DHT22;11077;50.264;6.798;2023-09-19T03:09:18;12.60;99.90
21830;DHT22;11077;50.264;6.798;2023-09-19T03:11:47;12.60;99.90
21830;DHT22;11077;50.264;6.798;2023-09-19T03:14:16;12.60;99.90
21830;DHT22;11077;50.264;6.798;2023-09-19T03:16:47;12.60;99.90
21830;DHT22;11077;50.264;6.798;2023-09-19T03:19:15;12.60;99.90
21830;DHT22;11077;50.264;6.798;2023-09-19T03:21:42;12.60;99.90
21830;DHT22;11077;50.264;6.798;2023-09-19T03:24:10;12.60;99.90
21830;DHT22;11077;50.264;6.798;2023-09-19T03:26:38;12.60;99.90
21830;DHT22;11077;50.264;6.798;2023-09-19T03:29:07;12.60;99.90
21830;DHT22;11077;50.264;6.798;2023-09-19T03:31:36;12.60;99.90
21830;DHT22;11077;50.264;6.798;2023-09-19T03:34:04;12.60;99.90
21830;DHT22;11077;50.264;6.798;2023-09-19T03:36:31;12.60;99.90
21830;DHT22;11077;50.264;6.798;2023-09-19T03:39:01;12.60;99.90
21830;DHT22;11077;50.264;6.798;2023-09-19T03:41:31;12.60;99.90
21830;DHT22;11077;50.264;6.798;2023-09-19T03:43:59;12.60;99.90
21830;DHT22;11077;50.264;6.798;2023-09-19T03:46:28;12.50;99.90
21830;DHT22;11077;50.264;6.798;2023-09-19T03:48:56;12.50;99.90
21830;DHT22;11077;50.264;6.798;2023-09-19T03:51:23;12.50;99.90
21830;DHT22;11077;50.264;6.798;2023-09-19T03:53:51;12.50;99.90
21830;DHT22;11077;50.264;6.798;2023-09-19T03:56:19;12.40;99.90
21830;DHT22;11077;50.264;6.798;2023-09-19T03:58:46;12.40;99.90
21830;DHT22;11077;50.264;6.798;2023-09-19T04:01:14;12.40;99.90
21830;DHT22;11077;50.264;6.798;2023-09-19T04:03:44;12.40;99.90
21830;DHT22;11077;50.264;6.798;2023-09-19T04:06:14;12.30;99.90
21830;DHT22;11077;50.264;6.798;2023-09-19T04:08:42;12.30;99.90
21830;DHT22;11077;50.264;6.798;2023-09-19T04:11:11;12.30;99.90
21830;DHT22;11077;50.264;6.798;2023-09-19T04:13:39;12.30;99.90
21830;DHT22;11077;50.264;6.798;2023-09-19T04:16:06;12.30;99.90
21830;DHT22;11077;50.264;6.798;2023-09-19T04:18:33;12.30;99.90
21830;DHT22;11077;50.264;6.798;2023-09-19T04:21:05;12.30;99.90
21830;DHT22;11077;50.264;6.798;2023-09-19T04:23:34;12.20;99.90
21830;DHT22;11077;50.264;6.798;2023-09-19T04:26:01;12.20;99.90
21830;DHT22;11077;50.264;6.798;2023-09-19T04:28:30;12.30;99.90
21830;DHT22;11077;50.264;6.798;2023-09-19T04:30:57;12.20;99.90
21830;DHT22;11077;50.264;6.798;2023-09-19T04:33:25;12.20;99.90
21830;DHT22;11077;50.264;6.798;2023-09-19T04:35:53;12.20;99.90
21830;DHT22;11077;50.264;6.798;2023-09-19T04:38:22;12.20;99.90
21830;DHT22;11077;50.264;6.798;2023-09-19T04:40:49;12.20;99.90
21830;DHT22;11077;50.264;6.798;2023-09-19T04:43:16;12.20;99.90
21830;DHT22;11077;50.264;6.798;2023-09-19T04:45:43;12.10;99.90
21830;DHT22;11077;50.264;6.798;2023-09-19T04:48:12;12.10;99.90
21830;DHT22;11077;50.264;6.798;2023-09-19T04:50:41;12.10;99.90
21830;DHT22;11077;50.264;6.798;2023-09-19T04:53:08;12.10;99.90
21830;DHT22;11077;50.264;6.798;2023-09-19T04:55:37;12.00;99.90
21830;DHT22;11077;50.264;6.798;2023-09-19T04:58:04;12.00;99.90
21830;DHT22;11077;50.264;6.798;2023-09-19T05:00:32;12.00;99.90
21830;DHT22;11077;50.264;6.798;2023-09-19T05:03:00;11.90;99.90
21830;DHT22;11077;50.264;6.798;2023-09-19T05:05:29;11.90;99.90
21830;DHT22;11077;50.264;6.798;2023-09-19T05:07:57;11.80;99.90
21830;DHT22;11077;50.264;6.798;2023-09-19T05:10:25;11.80;99.90
21830;DHT22;11077;50.264;6.798;2023-09-19T05:12:54;11.80;99.90
21830;DHT22;11077;50.264;6.798;2023-09-19T05:15:21;11.70;99.90
21830;DHT22;11077;50.264;6.798;2023-09-19T05:17:49;11.70;99.90
21830;DHT22;11077;50.264;6.798;2023-09-19T05:20:20;11.70;99.90
21830;DHT22;11077;50.264;6.798;2023-09-19T05:22:59;11.70;99.90
21830;DHT22;11077;50.264;6.798;2023-09-19T05:25:28;11.60;99.90
21830;DHT22;11077;50.264;6.798;2023-09-19T05:28:08;11.60;99.90
21830;DHT22;11077;50.264;6.798;2023-09-19T05:30:37;11.60;99.90
21830;DHT22;11077;50.264;6.798;2023-09-19T05:33:05;11.50;99.90
21830;DHT22;11077;50.264;6.798;2023-09-19T05:35:33;11.50;99.90
21830;DHT22;11077;50.264;6.798;2023-09-19T05:38:03;11.50;99.90
21830;DHT22;11077;50.264;6.798;2023-09-19T05:40:31;11.50;99.90
21830;DHT22;11077;50.264;6.798;2023-09-19T05:42:59;11.40;99.90
21830;DHT22;11077;50.264;6.798;2023-09-19T05:45:28;11.40;99.90
21830;DHT22;11077;50.264;6.798;2023-09-19T05:47:55;11.40;99.90
21830;DHT22;11077;50.264;6.798;2023-09-19T05:50:31;11.30;99.90
21830;DHT22;11077;50.264;6.798;2023-09-19T05:52:59;11.30;99.90
21830;DHT22;11077;50.264;6.798;2023-09-19T05:55:27;11.30;99.90
21830;DHT22;11077;50.264;6.798;2023-09-19T05:57:54;11.30;99.90
21830;DHT22;11077;50.264;6.798;2023-09-19T06:00:23;11.30;99.90
21830;DHT22;11077;50.264;6.798;2023-09-19T06:02:53;11.30;99.90
21830;DHT22;11077;50.264;6.798;2023-09-19T06:05:21;11.30;99.90
21830;DHT22;11077;50.264;6.798;2023-09-19T06:07:49;11.30;99.90
21830;DHT22;11077;50.264;6.798;2023-09-19T06:10:17;11.30;99.90
21830;DHT22;11077;50.264;6.798;2023-09-19T06:12:44;11.30;99.90
21830;DHT22;11077;50.264;6.798;2023-09-19T06:15:13;11.30;99.90
21830;DHT22;11077;50.264;6.798;2023-09-19T06:17:42;11.30;99.90
21830;DHT22;11077;50.264;6.798;2023-09-19T06:20:11;11.30;99.90
21830;DHT22;11077;50.264;6.798;2023-09-19T06:22:41;11.30;99.90
21830;DHT22;11077;50.264;6.798;2023-09-19T06:25:09;11.30;99.90
21830;DHT22;11077;50.264;6.798;2023-09-19T06:27:38;11.30;99.90
21830;DHT22;11077;50.264;6.798;2023-09-19T06:30:09;11.40;99.90
21830;DHT22;11077;50.264;6.798;2023-09-19T06:32:37;11.40;99.90
21830;DHT22;11077;50.264;6.798;2023-09-19T06:35:05;11.40;99.90
21830;DHT22;11077;50.264;6.798;2023-09-19T06:37:37;11.40;99.90
21830;DHT22;11077;50.264;6.798;2023-09-19T06:40:07;11.40;99.90
21830;DHT22;11077;50.264;6.798;2023-09-19T06:42:40;11.50;99.90
21830;DHT22;11077;50.264;6.798;2023-09-19T06:45:08;11.50;99.90
21830;DHT22;11077;50.264;6.798;2023-09-19T06:47:37;11.50;99.90
21830;DHT22;11077;50.264;6.798;2023-09-19T06:50:05;11.50;99.90
21830;DHT22;11077;50.264;6.798;2023-09-19T06:52:41;11.50;99.90
21830;DHT22;11077;50.264;6.798;2023-09-19T06:55:08;11.50;99.90
21830;DHT22;11077;50.264;6.798;2023-09-19T06:57:37;11.50;99.90
21830;DHT22;11077;50.264;6.798;2023-09-19T07:00:07;11.60;99.90
21830;DHT22;11077;50.264;6.798;2023-09-19T07:02:41;11.60;99.90
21830;DHT22;11077;50.264;6.798;2023-09-19T07:05:09;11.60;99.90
21830;DHT22;11077;50.264;6.798;2023-09-19T07:07:37;11.60;99.90
21830;DHT22;11077;50.264;6.798;2023-09-19T07:10:08;11.60;99.90
21830;DHT22;11077;50.264;6.798;2023-09-19T07:12:36;11.70;99.90
21830;DHT22;11077;50.264;6.798;2023-09-19T07:15:05;11.70;99.90
21830;DHT22;11077;50.264;6.798;2023-09-19T07:17:32;11.70;99.90
21830;DHT22;11077;50.264;6.798;2023-09-19T07:20:01;11.80;99.90
21830;DHT22;11077;50.264;6.798;2023-09-19T07:22:33;11.80;99.90
21830;DHT22;11077;50.264;6.798;2023-09-19T07:25:02;11.80;99.90
21830;DHT22;11077;50.264;6.798;2023-09-19T07:27:31;11.90;99.90
21830;DHT22;11077;50.264;6.798;2023-09-19T07:30:01;11.80;99.90
21830;DHT22;11077;50.264;6.798;2023-09-19T07:32:29;11.90;99.90
21830;DHT22;11077;50.264;6.798;2023-09-19T07:34:56;12.00;99.90
21830;DHT22;11077;50.264;6.798;2023-09-19T07:37:23;12.00;99.90
21830;DHT22;11077;50.264;6.798;2023-09-19T07:39:51;12.10;99.90
21830;DHT22;11077;50.264;6.798;2023-09-19T07:42:19;12.10;99.90
21830;DHT22;11077;50.264;6.798;2023-09-19T07:44:48;12.20;99.90
21830;DHT22;11077;50.264;6.798;2023-09-19T07:47:16;12.30;99.90
21830;DHT22;11077;50.264;6.798;2023-09-19T07:49:47;12.30;99.90
21830;DHT22;11077;50.264;6.798;2023-09-19T07:52:14;12.30;99.90
21830;DHT22;11077;50.264;6.798;2023-09-19T07:54:42;12.40;99.90
21830;DHT22;11077;50.264;6.798;2023-09-19T07:57:10;12.40;99.90
21830;DHT22;11077;50.264;6.798;2023-09-19T07:59:38;12.40;99.90
21830;DHT22;11077;50.264;6.798;2023-09-19T08:02:09;12.50;99.90
21830;DHT22;11077;50.264;6.798;2023-09-19T08:04:41;12.60;99.90
21830;DHT22;11077;50.264;6.798;2023-09-19T08:07:08;12.60;99.90
21830;DHT22;11077;50.264;6.798;2023-09-19T08:09:36;12.60;99.90
21830;DHT22;11077;50.264;6.798;2023-09-19T08:12:09;12.70;99.90
21830;DHT22;11077;50.264;6.798;2023-09-19T08:14:37;12.70;99.90
21830;DHT22;11077;50.264;6.798;2023-09-19T08:17:08;12.80;99.90
21830;DHT22;11077;50.264;6.798;2023-09-19T08:19:36;12.80;99.90
21830;DHT22;11077;50.264;6.798;2023-09-19T08:22:07;12.90;99.90
21830;DHT22;11077;50.264;6.798;2023-09-19T08:24:36;12.90;99.90
21830;DHT22;11077;50.264;6.798;2023-09-19T08:27:04;13.00;99.90
21830;DHT22;11077;50.264;6.798;2023-09-19T08:29:35;13.00;99.90
21830;DHT22;11077;50.264;6.798;2023-09-19T08:32:03;13.00;99.90
21830;DHT22;11077;50.264;6.798;2023-09-19T08:34:33;13.00;99.90
21830;DHT22;11077;50.264;6.798;2023-09-19T08:37:01;13.00;99.90
21830;DHT22;11077;50.264;6.798;2023-09-19T08:39:28;13.00;99.90
21830;DHT22;11077;50.264;6.798;2023-09-19T08:42:00;13.00;99.90
21830;DHT22;11077;50.264;6.798;2023-09-19T08:44:28;13.10;99.90
21830;DHT22;11077;50.264;6.798;2023-09-19T08:47:05;13.10;99.90
21830;DHT22;11077;50.264;6.798;2023-09-19T08:49:44;13.10;99.90
21830;DHT22;11077;50.264;6.798;2023-09-19T08:52:20;13.20;99.90
21830;DHT22;11077;50.264;6.798;2023-09-19T08:54:52;13.20;99.90
21830;DHT22;11077;50.264;6.798;2023-09-19T08:57:21;13.30;99.90
21830;DHT22;11077;50.264;6.798;2023-09-19T08:59:49;13.50;99.90
21830;DHT22;11077;50.264;6.798;2023-09-19T09:02:18;13.50;99.90
21830;DHT22;11077;50.264;6.798;2023-09-19T09:04:49;13.50;99.90
21830;DHT22;11077;50.264;6.798;2023-09-19T09:07:16;13.50;99.90
21830;DHT22;11077;50.264;6.798;2023-09-19T09:09:46;13.50;99.90
21830;DHT22;11077;50.264;6.798;2023-09-19T09:12:14;13.50;99.90
21830;DHT22;11077;50.264;6.798;2023-09-19T09:14:44;13.50;99.90
21830;DHT22;11077;50.264;6.798;2023-09-19T09:17:13;13.70;99.90
21830;DHT22;11077;50.264;6.798;2023-09-19T09:19:41;13.80;99.90
21830;DHT22;11077;50.264;6.798;2023-09-19T09:22:11;13.90;99.90
21830;DHT22;11077;50.264;6.798;2023-09-19T09:24:51;14.00;99.90
21830;DHT22;11077;50.264;6.798;2023-09-19T09:27:20;14.10;99.90
21830;DHT22;11077;50.264;6.798;2023-09-19T09:29:51;14.20;99.90
21830;DHT22;11077;50.264;6.798;2023-09-19T09:32:22;14.30;99.90
21830;DHT22;11077;50.264;6.798;2023-09-19T09:34:51;14.30;99.90
21830;DHT22;11077;50.264;6.798;2023-09-19T09:37:21;14.30;99.90
21830;DHT22;11077;50.264;6.798;2023-09-19T09:39:52;14.30;99.90
21830;DHT22;11077;50.264;6.798;2023-09-19T09:42:35;14.30;99.90
21830;DHT22;11077;50.264;6.798;2023-09-19T09:45:15;14.30;99.90
21830;DHT22;11077;50.264;6.798;2023-09-19T09:47:44;14.50;99.90
21830;DHT22;11077;50.264;6.798;2023-09-19T09:50:28;14.60;99.90
21830;DHT22;11077;50.264;6.798;2023-09-19T09:53:19;14.70;99.90
21830;DHT22;11077;50.264;6.798;2023-09-19T09:56:01;14.70;99.90
21830;DHT22;11077;50.264;6.798;2023-09-19T09:58:32;14.70;99.90
21830;DHT22;11077;50.264;6.798;2023-09-19T10:00:59;14.80;99.90
21830;DHT22;11077;50.264;6.798;2023-09-19T10:03:35;14.80;99.90
21830;DHT22;11077;50.264;6.798;2023-09-19T10:06:06;14.80;99.90
21830;DHT22;11077;50.264;6.798;2023-09-19T10:09:05;15.00;99.90
21830;DHT22;11077;50.264;6.798;2023-09-19T10:11:41;15.20;99.90
21830;DHT22;11077;50.264;6.798;2023-09-19T10:14:11;15.40;99.90
21830;DHT22;11077;50.264;6.798;2023-09-19T10:16:41;15.50;99.90
21830;DHT22;11077;50.264;6.798;2023-09-19T10:19:16;15.50;99.90
21830;DHT22;11077;50.264;6.798;2023-09-19T10:21:44;15.70;99.90
21830;DHT22;11077;50.264;6.798;2023-09-19T10:24:14;15.70;99.90
21830;DHT22;11077;50.264;6.798;2023-09-19T10:26:45;15.80;99.90
21830;DHT22;11077;50.264;6.798;2023-09-19T10:29:13;15.80;99.90
21830;DHT22;11077;50.264;6.798;2023-09-19T10:31:44;15.80;99.90
21830;DHT22;11077;50.264;6.798;2023-09-19T10:34:15;15.70;99.90
21830;DHT22;11077;50.264;6.798;2023-09-19T10:36:45;15.60;99.90
21830;DHT22;11077;50.264;6.798;2023-09-19T10:39:16;15.50;99.90
21830;DHT22;11077;50.264;6.798;2023-09-19T10:41:50;15.50;99.90
21830;DHT22;11077;50.264;6.798;2023-09-19T10:44:24;15.40;99.90
21830;DHT22;11077;50.264;6.798;2023-09-19T10:46:55;15.30;99.90
21830;DHT22;11077;50.264;6.798;2023-09-19T10:49:24;15.30;99.90
21830;DHT22;11077;50.264;6.798;2023-09-19T10:51:54;15.20;99.90
21830;DHT22;11077;50.264;6.798;2023-09-19T10:54:28;15.30;99.90
21830;DHT22;11077;50.264;6.798;2023-09-19T10:56:58;15.20;99.90
21830;DHT22;11077;50.264;6.798;2023-09-19T10:59:26;15.20;99.90
21830;DHT22;11077;50.264;6.798;2023-09-19T11:02:16;15.20;99.90
21830;DHT22;11077;50.264;6.798;2023-09-19T11:04:44;15.20;99.90
21830;DHT22;11077;50.264;6.798;2023-09-19T11:07:14;15.40;99.90
21830;DHT22;11077;50.264;6.798;2023-09-19T11:09:48;15.70;99.90
21830;DHT22;11077;50.264;6.798;2023-09-19T11:12:49;15.90;99.90
21830;DHT22;11077;50.264;6.798;2023-09-19T11:18:56;15.90;99.90
21830;DHT22;11077;50.264;6.798;2023-09-19T11:21:52;16.00;99.90
21830;DHT22;11077;50.264;6.798;2023-09-19T11:24:31;16.20;99.90
21830;DHT22;11077;50.264;6.798;2023-09-19T11:27:16;16.40;99.90
21830;DHT22;11077;50.264;6.798;2023-09-19T11:29:44;16.60;99.90
21830;DHT22;11077;50.264;6.798;2023-09-19T11:32:13;16.70;99.90
21830;DHT22;11077;50.264;6.798;2023-09-19T11:40:36;17.00;99.90
21830;DHT22;11077;50.264;6.798;2023-09-19T11:43:33;17.00;99.90
21830;DHT22;11077;50.264;6.798;2023-09-19T11:46:09;16.80;99.90
21830;DHT22;11077;50.264;6.798;2023-09-19T11:48:39;16.80;99.90
21830;DHT22;11077;50.264;6.798;2023-09-19T11:51:18;16.70;99.90
21830;DHT22;11077;50.264;6.798;2023-09-19T11:53:54;16.60;99.90
21830;DHT22;11077;50.264;6.798;2023-09-19T11:56:22;16.70;99.90
21830;DHT22;11077;50.264;6.798;2023-09-19T11:58:53;16.70;99.90
21830;DHT22;11077;50.264;6.798;2023-09-19T12:01:26;16.80;99.90
21830;DHT22;11077;50.264;6.798;2023-09-19T12:03:56;16.70;99.90
21830;DHT22;11077;50.264;6.798;2023-09-19T12:06:24;16.70;99.90
21830;DHT22;11077;50.264;6.798;2023-09-19T12:08:52;16.70;99.90
21830;DHT22;11077;50.264;6.798;2023-09-19T12:11:22;16.70;99.90
21830;DHT22;11077;50.264;6.798;2023-09-19T12:13:51;16.70;99.90
21830;DHT22;11077;50.264;6.798;2023-09-19T12:16:20;16.70;99.90
21830;DHT22;11077;50.264;6.798;2023-09-19T12:18:49;16.70;99.90
21830;DHT22;11077;50.264;6.798;2023-09-19T12:21:24;16.70;99.90
21830;DHT22;11077;50.264;6.798;2023-09-19T12:24:06;16.70;99.90
21830;DHT22;11077;50.264;6.798;2023-09-19T12:26:43;16.60;99.90
21830;DHT22;11077;50.264;6.798;2023-09-19T12:29:20;16.60;99.90
21830;DHT22;11077;50.264;6.798;2023-09-19T12:31:51;16.50;99.90
21830;DHT22;11077;50.264;6.798;2023-09-19T12:34:24;16.40;99.90
21830;DHT22;11077;50.264;6.798;2023-09-19T12:37:10;16.40;99.90
21830;DHT22;11077;50.264;6.798;2023-09-19T12:39:47;16.40;99.90
21830;DHT22;11077;50.264;6.798;2023-09-19T12:42:18;16.40;99.90
21830;DHT22;11077;50.264;6.798;2023-09-19T12:44:51;16.40;99.90
21830;DHT22;11077;50.264;6.798;2023-09-19T12:47:21;16.40;99.90
21830;DHT22;11077;50.264;6.798;2023-09-19T12:50:10;16.60;99.90
21830;DHT22;11077;50.264;6.798;2023-09-19T12:52:43;16.60;99.90
21830;DHT22;11077;50.264;6.798;2023-09-19T12:55:25;16.60;99.90
21830;DHT22;11077;50.264;6.798;2023-09-19T12:58:01;16.60;99.90
21830;DHT22;11077;50.264;6.798;2023-09-19T13:00:36;16.70;99.90
21830;DHT22;11077;50.264;6.798;2023-09-19T13:03:18;16.70;99.90
21830;DHT22;11077;50.264;6.798;2023-09-19T13:05:51;16.80;99.90
21830;DHT22;11077;50.264;6.798;2023-09-19T13:08:23;16.80;99.90
21830;DHT22;11077;50.264;6.798;2023-09-19T13:11:09;16.80;99.90
21830;DHT22;11077;50.264;6.798;2023-09-19T13:13:40;16.70;99.90
21830;DHT22;11077;50.264;6.798;2023-09-19T13:16:09;16.60;99.90
21830;DHT22;11077;50.264;6.798;2023-09-19T13:18:47;16.60;99.90
21830;DHT22;11077;50.264;6.798;2023-09-19T13:21:28;16.60;99.90
21830;DHT22;11077;50.264;6.798;2023-09-19T13:24:21;16.60;99.90
21830;DHT22;11077;50.264;6.798;2023-09-19T13:26:53;16.50;99.90
21830;DHT22;11077;50.264;6.798;2023-09-19T13:29:21;16.50;99.90
21830;DHT22;11077;50.264;6.798;2023-09-19T13:31:50;16.40;99.90
21830;DHT22;11077;50.264;6.798;2023-09-19T13:34:18;16.50;99.90
21830;DHT22;11077;50.264;6.798;2023-09-19T13:36:47;16.50;99.90
21830;DHT22;11077;50.264;6.798;2023-09-19T13:39:15;16.50;99.90
21830;DHT22;11077;50.264;6.798;2023-09-19T13:41:43;16.50;99.90
21830;DHT22;11077;50.264;6.798;2023-09-19T13:44:13;16.40;99.90
21830;DHT22;11077;50.264;6.798;2023-09-19T13:46:42;16.40;99.90
21830;DHT22;11077;50.264;6.798;2023-09-19T13:49:14;16.30;99.90
21830;DHT22;11077;50.264;6.798;2023-09-19T13:51:43;16.30;99.90
21830;DHT22;11077;50.264;6.798;2023-09-19T13:54:11;16.40;99.90
21830;DHT22;11077;50.264;6.798;2023-09-19T13:56:39;16.30;99.90
21830;DHT22;11077;50.264;6.798;2023-09-19T13:59:07;16.40;99.90
21830;DHT22;11077;50.264;6.798;2023-09-19T14:01:35;16.50;99.90
21830;DHT22;11077;50.264;6.798;2023-09-19T14:04:02;16.50;99.90
21830;DHT22;11077;50.264;6.798;2023-09-19T14:06:31;16.50;99.90
21830;DHT22;11077;50.264;6.798;2023-09-19T14:08:59;16.40;99.90
21830;DHT22;11077;50.264;6.798;2023-09-19T14:11:27;16.40;99.90
21830;DHT22;11077;50.264;6.798;2023-09-19T14:13:54;16.40;99.90
21830;DHT22;11077;50.264;6.798;2023-09-19T14:16:22;16.40;99.90
21830;DHT22;11077;50.264;6.798;2023-09-19T14:18:50;16.50;99.90
21830;DHT22;11077;50.264;6.798;2023-09-19T14:21:18;16.50;99.90
21830;DHT22;11077;50.264;6.798;2023-09-19T14:23:47;16.60;99.90
21830;DHT22;11077;50.264;6.798;2023-09-19T14:26:15;16.60;99.90
21830;DHT22;11077;50.264;6.798;2023-09-19T14:28:42;16.50;99.90
21830;DHT22;11077;50.264;6.798;2023-09-19T14:31:11;16.50;99.90
21830;DHT22;11077;50.264;6.798;2023-09-19T14:33:38;16.40;99.90
21830;DHT22;11077;50.264;6.798;2023-09-19T14:36:07;16.40;99.90
21830;DHT22;11077;50.264;6.798;2023-09-19T14:38:37;16.30;99.90
21830;DHT22;11077;50.264;6.798;2023-09-19T14:41:08;16.30;99.90
21830;DHT22;11077;50.264;6.798;2023-09-19T14:43:36;16.30;99.90
21830;DHT22;11077;50.264;6.798;2023-09-19T14:46:03;16.20;99.90
21830;DHT22;11077;50.264;6.798;2023-09-19T14:48:34;16.20;99.90
21830;DHT22;11077;50.264;6.798;2023-09-19T14:51:02;16.20;99.90
21830;DHT22;11077;50.264;6.798;2023-09-19T14:53:30;16.10;99.90
21830;DHT22;11077;50.264;6.798;2023-09-19T14:56:00;16.10;99.90
21830;DHT22;11077;50.264;6.798;2023-09-19T14:58:29;16.10;99.90
21830;DHT22;11077;50.264;6.798;2023-09-19T15:01:03;16.20;99.90
21830;DHT22;11077;50.264;6.798;2023-09-19T15:03:31;16.20;99.90
21830;DHT22;11077;50.264;6.798;2023-09-19T15:06:00;16.30;99.90
21830;DHT22;11077;50.264;6.798;2023-09-19T15:08:27;16.30;99.90
21830;DHT22;11077;50.264;6.798;2023-09-19T15:10:55;16.30;99.90
21830;DHT22;11077;50.264;6.798;2023-09-19T15:13:24;16.40;99.90
21830;DHT22;11077;50.264;6.798;2023-09-19T15:16:01;16.30;99.90
21830;DHT22;11077;50.264;6.798;2023-09-19T15:18:29;16.30;99.90
21830;DHT22;11077;50.264;6.798;2023-09-19T15:20:57;16.30;99.90
21830;DHT22;11077;50.264;6.798;2023-09-19T15:23:27;16.30;99.90
21830;DHT22;11077;50.264;6.798;2023-09-19T15:25:55;16.40;99.90
21830;DHT22;11077;50.264;6.798;2023-09-19T15:28:23;16.40;99.90
21830;DHT22;11077;50.264;6.798;2023-09-19T15:30:56;16.40;99.90
21830;DHT22;11077;50.264;6.798;2023-09-19T15:33:26;16.40;99.90
21830;DHT22;11077;50.264;6.798;2023-09-19T15:36:01;16.40;99.90
21830;DHT22;11077;50.264;6.798;2023-09-19T15:38:29;16.30;99.90
21830;DHT22;11077;50.264;6.798;2023-09-19T15:40:57;16.30;99.90
21830;DHT22;11077;50.264;6.798;2023-09-19T15:43:26;16.20;99.90
21830;DHT22;11077;50.264;6.798;2023-09-19T15:45:53;16.20;99.90
21830;DHT22;11077;50.264;6.798;2023-09-19T15:48:21;16.20;99.90
21830;DHT22;11077;50.264;6.798;2023-09-19T15:50:49;16.30;99.90
21830;DHT22;11077;50.264;6.798;2023-09-19T15:53:18;16.30;99.90
21830;DHT22;11077;50.264;6.798;2023-09-19T15:55:45;16.20;99.90
21830;DHT22;11077;50.264;6.798;2023-09-19T15:58:12;16.20;99.90
21830;DHT22;11077;50.264;6.798;2023-09-19T16:00:40;16.10;99.90